Sea Carrier — 9V7734 — position and weather

sailwx.info

Track history (hours):
 
Tides and Currents Weather Stations Pressure Air Temp Water Temp Dewpoint Dewpoint Depression Visibility Wind Speed Wind Dir Waves Ship Positions

Sea Carrier

Last reported at 2018-Feb-12 16:27 UTC. Time now 2018-Feb-19 08:22 UTC.
Position N 35°57' W 005°16'.

Length 107 m; draft 7.9 m.

Type: Cargo ship. MMSI: 566837000.

Date/timePositionNaut miles runAvg speedWind from/ knotsBaromVisibWave heightAir tempDewpointWater temp
2018-Feb-12 16:27N 35°57' W 005°16'612.8
2018-Feb-12 16:01N 35°58' W 005°23'  
2018-Feb-08 21:30N 38°48' W 010°05'1211.9
2018-Feb-08 20:30N 38°59' W 010°05'  
2018-Feb-06 01:49N 49°50' W 003°17'411.5
2018-Feb-06 01:27N 49°51' W 003°11'1010.8
2018-Feb-06 00:30N 49°56' W 002°57'10 9.8
2018-Feb-05 23:27N 49°60' W 002°42'4 9.2
2018-Feb-05 22:59N 50°01' W 002°36'5 9.2
2018-Feb-05 22:27N 50°02' W 002°29'15 9.8
2018-Feb-05 20:55N 50°07' W 002°06'511.1
2018-Feb-05 20:30N 50°08' W 001°59'6313.6
2018-Feb-05 15:50N 50°27' W 000°25'412.5
2018-Feb-05 15:30N 50°28' W 000°18'1211.6
2018-Feb-05 14:30N 50°31' W 000°01'510.6
2018-Feb-05 14:00N 50°33' E 000°07'510.1
2018-Feb-05 13:30N 50°34' E 000°15'9 9.4
2018-Feb-05 12:30N 50°37' E 000°29'3011.0
2018-Feb-05 09:46N 50°54' E 001°08'413.2
2018-Feb-05 09:30N 50°57' E 001°12'713.4
2018-Feb-05 09:00N 51°01' E 001°20'713.2
2018-Feb-05 08:30N 51°05' E 001°29'612.3
2018-Feb-05 08:01N 51°09' E 001°36'611.4
2018-Feb-05 07:31N 51°13' E 001°43'510.7
2018-Feb-05 07:00N 51°17' E 001°47'510.1
2018-Feb-05 06:31N 51°22' E 001°51'10 9.5
2018-Feb-05 05:30N 51°30' E 001°59'5 9.4
2018-Feb-05 05:00N 51°33' E 002°04'5 9.6
2018-Feb-05 04:28N 51°37' E 002°09'24810.8
2018-Feb-04 05:31N 54°01' E 007°43'012.1
2018-Feb-04 05:30N 54°01' E 007°43'612.1
2018-Feb-04 05:00N 54°01' E 007°53'612.2
2018-Feb-04 04:30N 54°01' E 008°04'611.9
2018-Feb-04 04:01N 54°00' E 008°14'612.0
2018-Feb-04 03:30N 53°59' E 008°24'612.0
2018-Feb-04 03:00N 53°58' E 008°34'5 9.4
2018-Feb-04 02:30N 53°55' E 008°40'4 8.7
2018-Feb-04 02:00N 53°52' E 008°44'4 7.9
2018-Feb-04 01:30N 53°50' E 008°51'4 8.1
2018-Feb-04 01:00N 53°51' E 008°57'4 8.1
2018-Feb-04 00:30N 53°52' E 009°04'3 6.4
2018-Feb-04 00:00N 53°54' E 009°09'0 0.1
2018-Feb-03 23:30N 53°54' E 009°09'1 2.5
2018-Feb-03 23:00N 53°55' E 009°10'4 7.6
2018-Feb-03 22:30N 53°57' E 009°15'4 8.2
2018-Feb-03 21:59N 54°01' E 009°18'2 3.5
2018-Feb-03 21:30N 54°03' E 009°18'4 8.2
2018-Feb-03 20:58N 54°07' E 009°20'4 7.8
2018-Feb-03 20:31N 54°10' E 009°24'4 8.5
2018-Feb-03 20:01N 54°11' E 009°31'6 4.3
2018-Feb-03 18:31N 54°16' E 009°38'4 7.4
2018-Feb-03 18:01N 54°19' E 009°43'4 7.9
2018-Feb-03 17:31N 54°22' E 009°47'27 6.2
2018-Feb-03 13:13N 54°33' E 010°29'311.4
2018-Feb-03 13:00N 54°34' E 010°33'511.3
2018-Feb-03 12:31N 54°35' E 010°42'611.5
2018-Feb-03 12:01N 54°35' E 010°52'612.1
2018-Feb-03 11:30N 54°36' E 011°03'611.8
2018-Feb-03 11:01N 54°35' E 011°13'612.2
2018-Feb-03 10:29N 54°33' E 011°23'612.1
2018-Feb-03 10:00N 54°30' E 011°32'612.0
2018-Feb-03 09:31N 54°28' E 011°41'611.5
2018-Feb-03 09:01N 54°27' E 011°51'611.5
2018-Feb-03 08:31N 54°26' E 012°01'5210.8
2018-Feb-03 03:40N 54°55' E 013°17'411.6
2018-Feb-03 03:18N 54°56' E 013°24'2611.6
2018-Feb-03 01:03N 55°06' E 014°06'311.8
2018-Feb-03 00:49N 55°08' E 014°09'411.9
2018-Feb-03 00:30N 55°11' E 014°13'611.9
2018-Feb-02 23:58N 55°16' E 014°21'1811.8
2018-Feb-02 22:25N 55°29' E 014°43'1011.7
2018-Feb-02 21:33N 55°34' E 014°59'111.7
2018-Feb-02 21:30N 55°34' E 014°60'611.7
2018-Feb-02 21:00N 55°37' E 015°08'611.6
2018-Feb-02 20:31N 55°40' E 015°17'611.6
2018-Feb-02 20:00N 55°43' E 015°26'1111.3
2018-Feb-02 19:01N 55°48' E 015°43'611.3
2018-Feb-02 18:30N 55°51' E 015°52'611.4
2018-Feb-02 18:00N 55°54' E 016°01'611.3
2018-Feb-02 17:31N 55°57' E 016°09'611.3
2018-Feb-02 17:00N 56°00' E 016°18'611.4
2018-Feb-02 16:30N 56°03' E 016°27'  
Track history (hours):
 
Tides and Currents Weather Stations Pressure Air Temp Water Temp Dewpoint Dewpoint Depression Visibility Wind Speed Wind Dir Waves Ship Positions

Sea Carrier

Last reported at 2018-Feb-12 16:27 UTC. Time now 2018-Feb-19 08:22 UTC.
Position N 35°57' W 005°16'.

Length 107 m; draft 7.9 m.

Type: Cargo ship. MMSI: 566837000.

Date/timePositionNaut miles runAvg speedWind from/ knotsBaromVisibWave heightAir tempDewpointWater temp
2018-Feb-12 16:27N 35°57' W 005°16'612.8
2018-Feb-12 16:01N 35°58' W 005°23'  
2018-Feb-08 21:30N 38°48' W 010°05'1211.9
2018-Feb-08 20:30N 38°59' W 010°05'  
2018-Feb-06 01:49N 49°50' W 003°17'411.5
2018-Feb-06 01:27N 49°51' W 003°11'1010.8
2018-Feb-06 00:30N 49°56' W 002°57'10 9.8
2018-Feb-05 23:27N 49°60' W 002°42'4 9.2
2018-Feb-05 22:59N 50°01' W 002°36'5 9.2
2018-Feb-05 22:27N 50°02' W 002°29'15 9.8
2018-Feb-05 20:55N 50°07' W 002°06'511.1
2018-Feb-05 20:30N 50°08' W 001°59'6313.6
2018-Feb-05 15:50N 50°27' W 000°25'412.5
2018-Feb-05 15:30N 50°28' W 000°18'1211.6
2018-Feb-05 14:30N 50°31' W 000°01'510.6
2018-Feb-05 14:00N 50°33' E 000°07'510.1
2018-Feb-05 13:30N 50°34' E 000°15'9 9.4
2018-Feb-05 12:30N 50°37' E 000°29'3011.0
2018-Feb-05 09:46N 50°54' E 001°08'413.2
2018-Feb-05 09:30N 50°57' E 001°12'713.4
2018-Feb-05 09:00N 51°01' E 001°20'713.2
2018-Feb-05 08:30N 51°05' E 001°29'612.3
2018-Feb-05 08:01N 51°09' E 001°36'611.4
2018-Feb-05 07:31N 51°13' E 001°43'510.7
2018-Feb-05 07:00N 51°17' E 001°47'510.1
2018-Feb-05 06:31N 51°22' E 001°51'10 9.5
2018-Feb-05 05:30N 51°30' E 001°59'5 9.4
2018-Feb-05 05:00N 51°33' E 002°04'5 9.6
2018-Feb-05 04:28N 51°37' E 002°09'24810.8
2018-Feb-04 05:31N 54°01' E 007°43'012.1
2018-Feb-04 05:30N 54°01' E 007°43'612.1
2018-Feb-04 05:00N 54°01' E 007°53'612.2
2018-Feb-04 04:30N 54°01' E 008°04'611.9
2018-Feb-04 04:01N 54°00' E 008°14'612.0
2018-Feb-04 03:30N 53°59' E 008°24'612.0
2018-Feb-04 03:00N 53°58' E 008°34'5 9.4
2018-Feb-04 02:30N 53°55' E 008°40'4 8.7
2018-Feb-04 02:00N 53°52' E 008°44'4 7.9
2018-Feb-04 01:30N 53°50' E 008°51'4 8.1
2018-Feb-04 01:00N 53°51' E 008°57'4 8.1
2018-Feb-04 00:30N 53°52' E 009°04'3 6.4
2018-Feb-04 00:00N 53°54' E 009°09'0 0.1
2018-Feb-03 23:30N 53°54' E 009°09'1 2.5
2018-Feb-03 23:00N 53°55' E 009°10'4 7.6
2018-Feb-03 22:30N 53°57' E 009°15'4 8.2
2018-Feb-03 21:59N 54°01' E 009°18'2 3.5
2018-Feb-03 21:30N 54°03' E 009°18'4 8.2
2018-Feb-03 20:58N 54°07' E 009°20'4 7.8
2018-Feb-03 20:31N 54°10' E 009°24'4 8.5
2018-Feb-03 20:01N 54°11' E 009°31'6 4.3
2018-Feb-03 18:31N 54°16' E 009°38'4 7.4
2018-Feb-03 18:01N 54°19' E 009°43'4 7.9
2018-Feb-03 17:31N 54°22' E 009°47'27 6.2
2018-Feb-03 13:13N 54°33' E 010°29'311.4
2018-Feb-03 13:00N 54°34' E 010°33'511.3
2018-Feb-03 12:31N 54°35' E 010°42'611.5
2018-Feb-03 12:01N 54°35' E 010°52'612.1
2018-Feb-03 11:30N 54°36' E 011°03'611.8
2018-Feb-03 11:01N 54°35' E 011°13'612.2
2018-Feb-03 10:29N 54°33' E 011°23'612.1
2018-Feb-03 10:00N 54°30' E 011°32'612.0
2018-Feb-03 09:31N 54°28' E 011°41'611.5
2018-Feb-03 09:01N 54°27' E 011°51'611.5
2018-Feb-03 08:31N 54°26' E 012°01'5210.8
2018-Feb-03 03:40N 54°55' E 013°17'411.6
2018-Feb-03 03:18N 54°56' E 013°24'2611.6
2018-Feb-03 01:03N 55°06' E 014°06'311.8
2018-Feb-03 00:49N 55°08' E 014°09'411.9
2018-Feb-03 00:30N 55°11' E 014°13'611.9
2018-Feb-02 23:58N 55°16' E 014°21'1811.8
2018-Feb-02 22:25N 55°29' E 014°43'1011.7
2018-Feb-02 21:33N 55°34' E 014°59'111.7
2018-Feb-02 21:30N 55°34' E 014°60'611.7
2018-Feb-02 21:00N 55°37' E 015°08'611.6
2018-Feb-02 20:31N 55°40' E 015°17'611.6
2018-Feb-02 20:00N 55°43' E 015°26'1111.3
2018-Feb-02 19:01N 55°48' E 015°43'611.3
2018-Feb-02 18:30N 55°51' E 015°52'611.4
2018-Feb-02 18:00N 55°54' E 016°01'611.3
2018-Feb-02 17:31N 55°57' E 016°09'611.3
2018-Feb-02 17:00N 56°00' E 016°18'611.4
2018-Feb-02 16:30N 56°03' E 016°27'  

Dump ship's entire track history